Time,TemperatureF,DewpointF,PressureIn,WindDirection,WindDirectionDegrees,WindSpeedMPH,WindSpeedGustMPH,Humidity,HourlyPrecipIn,Conditions,Clouds,dailyrainin,SoftwareType,DateUTC
2013-03-04 00:01:00,41.0,34.0,29.68,ESE,118,0.0,2.0,76,0.00,,,0.00,,2013-03-04 06:01:00,
2013-03-04 00:11:00,41.0,34.0,29.68,ESE,118,0.0,2.0,76,0.00,,,0.00,,2013-03-04 06:11:00,
2013-03-04 00:21:00,40.0,34.0,29.69,NW,321,0.0,0.0,78,0.00,,,0.00,,2013-03-04 06:21:00,
2013-03-04 00:31:00,39.0,33.0,29.68,NW,320,0.0,0.0,79,0.00,,,0.00,,2013-03-04 06:31:00,
2013-03-04 00:42:00,39.0,33.0,29.68,NW,320,0.0,0.0,79,0.00,,,0.00,,2013-03-04 06:42:00,
2013-03-04 00:52:00,38.0,33.0,29.68,NW,321,0.0,0.0,81,0.00,,,0.00,,2013-03-04 06:52:00,
2013-03-04 01:01:00,38.0,33.0,29.68,NW,321,0.0,0.0,81,0.00,,,0.00,,2013-03-04 07:01:00,
2013-03-04 01:11:00,38.0,33.0,29.68,NW,321,0.0,0.0,81,0.00,,,0.00,,2013-03-04 07:11:00,
2013-03-04 01:21:00,37.0,33.0,29.66,NNE,17,0.0,1.0,84,0.00,,,0.00,,2013-03-04 07:21:00,
2013-03-04 01:32:00,37.0,33.0,29.66,ENE,72,0.0,2.0,84,0.00,,,0.00,,2013-03-04 07:32:00,
2013-03-04 01:42:00,37.0,33.0,29.66,ENE,72,0.0,2.0,84,0.00,,,0.00,,2013-03-04 07:42:00,
2013-03-04 01:52:00,36.0,32.0,29.66,ENE,73,0.0,1.0,85,0.00,,,0.00,,2013-03-04 07:52:00,
2013-03-04 02:01:00,36.0,32.0,29.66,ENE,73,0.0,1.0,85,0.00,,,0.00,,2013-03-04 08:01:00,
2013-03-04 02:11:00,36.0,32.0,29.65,ENE,68,0.0,1.0,85,0.00,,,0.00,,2013-03-04 08:11:00,
2013-03-04 02:21:00,36.0,32.0,29.65,ENE,68,0.0,1.0,85,0.00,,,0.00,,2013-03-04 08:21:00,
2013-03-04 02:31:00,36.0,32.0,29.66,ENE,68,0.0,0.0,86,0.00,,,0.00,,2013-03-04 08:31:00,
2013-03-04 02:42:00,36.0,32.0,29.66,ENE,68,0.0,0.0,86,0.00,,,0.00,,2013-03-04 08:42:00,
2013-03-04 02:52:00,36.0,32.0,29.65,SE,141,0.0,1.0,86,0.00,,,0.00,,2013-03-04 08:52:00,
2013-03-04 03:01:00,36.0,32.0,29.65,ESE,115,0.0,3.0,85,0.00,,,0.00,,2013-03-04 09:01:00,
2013-03-04 03:11:00,36.0,32.0,29.65,ESE,115,0.0,3.0,85,0.00,,,0.00,,2013-03-04 09:11:00,
2013-03-04 03:21:00,36.0,32.0,29.66,ESE,115,0.0,1.0,86,0.00,,,0.00,,2013-03-04 09:21:00,
2013-03-04 03:32:00,35.0,32.0,29.67,NNW,329,0.0,1.0,87,0.00,,,0.00,,2013-03-04 09:32:00,
2013-03-04 03:42:00,35.0,32.0,29.67,NNW,329,0.0,1.0,87,0.00,,,0.00,,2013-03-04 09:42:00,
2013-03-04 03:52:00,34.0,31.0,29.66,WNW,303,0.0,1.0,87,0.00,,,0.00,,2013-03-04 09:52:00,
2013-03-04 04:01:00,34.0,31.0,29.66,WNW,303,0.0,1.0,87,0.00,,,0.00,,2013-03-04 10:01:00,
2013-03-04 04:11:00,34.0,31.0,29.66,WNW,303,0.0,1.0,87,0.00,,,0.00,,2013-03-04 10:11:00,
2013-03-04 04:21:00,33.0,30.0,29.67,NW,311,0.0,0.0,89,0.00,,,0.00,,2013-03-04 10:21:00,
2013-03-04 04:31:00,33.0,30.0,29.67,NW,311,0.0,0.0,89,0.00,,,0.00,,2013-03-04 10:31:00,
2013-03-04 04:42:00,33.0,30.0,29.67,NW,314,0.0,0.0,89,0.00,,,0.00,,2013-03-04 10:42:00,
2013-03-04 04:52:00,33.0,30.0,29.67,NW,314,0.0,0.0,89,0.00,,,0.00,,2013-03-04 10:52:00,
2013-03-04 05:01:00,32.0,29.0,29.67,NW,311,0.0,0.0,90,0.00,,,0.00,,2013-03-04 11:01:00,
2013-03-04 05:11:00,32.0,29.0,29.67,NW,311,0.0,0.0,90,0.00,,,0.00,,2013-03-04 11:11:00,
2013-03-04 05:21:00,33.0,30.0,29.67,NW,309,0.0,0.0,90,0.00,,,0.00,,2013-03-04 11:21:00,
2013-03-04 05:32:00,33.0,30.0,29.66,NW,309,0.0,0.0,90,0.00,,,0.00,,2013-03-04 11:32:00,
2013-03-04 05:42:00,33.0,30.0,29.66,NW,309,0.0,0.0,90,0.00,,,0.00,,2013-03-04 11:42:00,
2013-03-04 05:52:00,33.0,30.0,29.67,NW,309,0.0,0.0,90,0.00,,,0.00,,2013-03-04 11:52:00,
2013-03-04 06:01:00,33.0,30.0,29.67,NW,309,0.0,0.0,90,0.00,,,0.00,,2013-03-04 12:01:00,
2013-03-04 06:11:00,33.0,30.0,29.67,NW,309,0.0,0.0,90,0.00,,,0.00,,2013-03-04 12:11:00,
2013-03-04 06:22:00,33.0,30.0,29.66,NW,309,0.0,0.0,90,0.00,,,0.00,,2013-03-04 12:22:00,
2013-03-04 06:32:00,33.0,30.0,29.66,NW,309,0.0,0.0,90,0.00,,,0.00,,2013-03-04 12:32:00,
2013-03-04 06:42:00,33.0,30.0,29.66,NW,309,0.0,0.0,90,0.00,,,0.00,,2013-03-04 12:42:00,
2013-03-04 06:53:00,33.0,30.0,29.66,NW,309,0.0,0.0,90,0.00,,,0.00,,2013-03-04 12:53:00,
2013-03-04 07:02:00,33.0,30.0,29.67,NW,309,0.0,0.0,90,0.00,,,0.00,,2013-03-04 13:02:00,
2013-03-04 07:11:00,33.0,30.0,29.67,NW,309,0.0,0.0,90,0.00,,,0.00,,2013-03-04 13:11:00,
2013-03-04 07:21:00,33.0,30.0,29.66,NW,309,0.0,0.0,90,0.00,,,0.00,,2013-03-04 13:21:00,
2013-03-04 07:32:00,33.0,30.0,29.67,NW,309,0.0,0.0,90,0.00,,,0.00,,2013-03-04 13:32:00,
2013-03-04 07:41:00,33.0,30.0,29.67,NW,309,0.0,0.0,90,0.00,,,0.00,,2013-03-04 13:41:00,
2013-03-04 07:52:00,31.0,29.0,29.69,WNW,290,0.0,0.0,92,0.00,,,0.00,,2013-03-04 13:52:00,
2013-03-04 08:01:00,31.0,29.0,29.69,WNW,290,0.0,0.0,92,0.00,,,0.00,,2013-03-04 14:01:00,
2013-03-04 08:11:00,31.0,29.0,29.69,WNW,290,0.0,0.0,92,0.00,,,0.00,,2013-03-04 14:11:00,
2013-03-04 08:22:00,33.0,31.0,29.71,NW,308,0.0,1.0,91,0.00,,,0.00,,2013-03-04 14:22:00,
2013-03-04 08:32:00,33.0,31.0,29.72,NW,312,0.0,0.0,91,0.00,,,0.00,,2013-03-04 14:32:00,
2013-03-04 08:42:00,33.0,31.0,29.72,NW,312,0.0,0.0,91,0.00,,,0.00,,2013-03-04 14:42:00,
2013-03-04 08:52:00,34.0,32.0,29.72,NW,317,0.0,0.0,91,0.00,,,0.00,,2013-03-04 14:52:00,
2013-03-04 09:01:00,35.0,32.0,29.73,NW,322,4.0,7.0,90,0.00,,,0.00,,2013-03-04 15:01:00,
2013-03-04 09:11:00,35.0,32.0,29.73,NW,322,4.0,7.0,90,0.00,,,0.00,,2013-03-04 15:11:00,
2013-03-04 09:21:00,36.0,33.0,29.74,NNW,330,6.0,9.0,88,0.00,,,0.00,,2013-03-04 15:21:00,
2013-03-04 09:32:00,38.0,34.0,29.74,NNW,332,4.0,10.0,86,0.00,,,0.00,,2013-03-04 15:32:00,
2013-03-04 09:42:00,38.0,34.0,29.74,NNW,332,4.0,10.0,86,0.00,,,0.00,,2013-03-04 15:42:00,
2013-03-04 09:52:00,41.0,37.0,29.75,NW,316,7.0,13.0,84,0.00,,,0.00,,2013-03-04 15:52:00,
2013-03-04 10:02:00,41.0,37.0,29.75,NW,316,7.0,13.0,84,0.00,,,0.00,,2013-03-04 16:02:00,
2013-03-04 10:11:00,41.0,37.0,29.75,NW,316,7.0,13.0,84,0.00,,,0.00,,2013-03-04 16:11:00,
2013-03-04 10:21:00,41.0,37.0,29.75,NW,316,7.0,13.0,84,0.00,,,0.00,,2013-03-04 16:21:00,
2013-03-04 10:31:00,42.0,37.0,29.78,WNW,297,2.0,14.0,83,0.00,,,0.00,,2013-03-04 16:31:00,
2013-03-04 10:42:00,42.0,37.0,29.78,WNW,297,2.0,14.0,83,0.00,,,0.00,,2013-03-04 16:42:00,
2013-03-04 10:52:00,42.0,37.0,29.78,NNE,12,4.0,19.0,83,0.00,,,0.00,,2013-03-04 16:52:00,
2013-03-04 11:02:00,43.0,38.0,29.78,NNW,331,6.0,14.0,82,0.00,,,0.00,,2013-03-04 17:02:00,
2013-03-04 11:11:00,43.0,38.0,29.78,NNW,331,6.0,14.0,82,0.00,,,0.00,,2013-03-04 17:11:00,
2013-03-04 11:22:00,43.0,38.0,29.78,NE,50,9.0,16.0,81,0.00,,,0.00,,2013-03-04 17:22:00,
2013-03-04 11:32:00,43.0,38.0,29.78,NNW,330,10.0,16.0,81,0.00,,,0.00,,2013-03-04 17:32:00,
2013-03-04 11:42:00,43.0,38.0,29.78,NNW,330,10.0,16.0,81,0.00,,,0.00,,2013-03-04 17:42:00,
2013-03-04 11:52:00,43.0,38.0,29.79,NE,56,9.0,14.0,82,0.00,,,0.00,,2013-03-04 17:52:00,
2013-03-04 12:01:00,43.0,38.0,29.79,NE,56,9.0,14.0,82,0.00,,,0.00,,2013-03-04 18:01:00,
2013-03-04 12:11:00,43.0,38.0,29.79,NE,56,9.0,14.0,82,0.00,,,0.00,,2013-03-04 18:11:00,
2013-03-04 12:21:00,43.0,38.0,29.78,NNW,338,7.0,13.0,81,0.00,,,0.00,,2013-03-04 18:21:00,
2013-03-04 12:32:00,43.0,37.0,29.78,NW,321,11.0,18.0,79,0.00,,,0.00,,2013-03-04 18:32:00,
2013-03-04 12:42:00,43.0,37.0,29.78,NW,321,11.0,18.0,79,0.00,,,0.00,,2013-03-04 18:42:00,
2013-03-04 12:52:00,43.0,37.0,29.78,NW,321,11.0,18.0,79,0.00,,,0.00,,2013-03-04 18:52:00,
2013-03-04 13:01:00,44.0,38.0,29.78,NW,307,1.0,16.0,78,0.00,,,0.00,,2013-03-04 19:01:00,
2013-03-04 13:11:00,44.0,38.0,29.78,NW,307,1.0,16.0,78,0.00,,,0.00,,2013-03-04 19:11:00,
2013-03-04 13:22:00,44.0,38.0,29.78,NW,307,1.0,16.0,78,0.00,,,0.00,,2013-03-04 19:22:00,
2013-03-04 13:32:00,44.0,38.0,29.78,ENE,60,1.0,18.0,78,0.00,,,0.00,,2013-03-04 19:32:00,
2013-03-04 13:42:00,44.0,38.0,29.78,ENE,60,1.0,18.0,78,0.00,,,0.00,,2013-03-04 19:42:00,
2013-03-04 13:52:00,44.0,37.0,29.78,ENE,68,11.0,15.0,75,0.00,,,0.00,,2013-03-04 19:52:00,
2013-03-04 14:01:00,45.0,38.0,29.77,NE,44,6.0,14.0,75,0.00,,,0.00,,2013-03-04 20:01:00,
2013-03-04 14:11:00,45.0,38.0,29.77,NW,311,4.0,13.0,75,0.00,,,0.00,,2013-03-04 20:11:00,
2013-03-04 14:22:00,45.0,38.0,29.77,NW,311,4.0,13.0,75,0.00,,,0.00,,2013-03-04 20:22:00,
2013-03-04 14:32:00,45.0,37.0,29.77,WNW,295,1.0,14.0,74,0.00,,,0.00,,2013-03-04 20:32:00,
2013-03-04 14:42:00,45.0,37.0,29.77,WNW,295,1.0,14.0,74,0.00,,,0.00,,2013-03-04 20:42:00,
2013-03-04 14:52:00,45.0,37.0,29.77,ENE,60,3.0,12.0,74,0.00,,,0.00,,2013-03-04 20:52:00,
2013-03-04 15:02:00,45.0,37.0,29.77,NE,53,4.0,12.0,73,0.00,,,0.00,,2013-03-04 21:02:00,
2013-03-04 15:11:00,45.0,37.0,29.77,NE,53,4.0,12.0,73,0.00,,,0.00,,2013-03-04 21:11:00,
2013-03-04 15:22:00,45.0,37.0,29.78,NE,44,9.0,13.0,73,0.00,,,0.00,,2013-03-04 21:22:00,
2013-03-04 15:32:00,45.0,37.0,29.79,NW,322,6.0,13.0,74,0.00,,,0.00,,2013-03-04 21:32:00,
2013-03-04 15:42:00,45.0,37.0,29.79,NW,322,6.0,13.0,74,0.00,,,0.00,,2013-03-04 21:42:00,
2013-03-04 15:53:00,44.0,36.0,29.80,NW,321,9.0,10.0,74,0.00,,,0.00,,2013-03-04 21:53:00,
2013-03-04 16:01:00,44.0,36.0,29.80,NNW,337,3.0,11.0,74,0.00,,,0.00,,2013-03-04 22:01:00,
2013-03-04 16:12:00,44.0,36.0,29.80,NNW,337,3.0,11.0,74,0.00,,,0.00,,2013-03-04 22:12:00,
2013-03-04 16:22:00,44.0,36.0,29.81,NW,314,2.0,12.0,74,0.00,,,0.00,,2013-03-04 22:22:00,
2013-03-04 16:32:00,44.0,36.0,29.81,NW,314,2.0,12.0,74,0.00,,,0.00,,2013-03-04 22:32:00,
2013-03-04 16:42:00,44.0,36.0,29.81,NW,314,2.0,12.0,74,0.00,,,0.00,,2013-03-04 22:42:00,
2013-03-04 16:52:00,44.0,37.0,29.86,NW,310,5.0,13.0,75,0.00,,,0.00,,2013-03-04 22:52:00,
2013-03-04 17:01:00,44.0,37.0,29.87,WNW,293,13.0,16.0,76,0.00,,,0.00,,2013-03-04 23:01:00,
2013-03-04 17:11:00,44.0,37.0,29.87,WNW,293,13.0,16.0,76,0.00,,,0.00,,2013-03-04 23:11:00,
2013-03-04 17:22:00,43.0,36.0,29.88,NE,53,5.0,16.0,76,0.00,,,0.00,,2013-03-04 23:22:00,
2013-03-04 17:32:00,43.0,36.0,29.88,NNW,346,3.0,19.0,77,0.00,,,0.00,,2013-03-04 23:32:00,
2013-03-04 17:42:00,43.0,36.0,29.88,NNW,346,3.0,19.0,77,0.00,,,0.00,,2013-03-04 23:42:00,
2013-03-04 17:52:00,43.0,36.0,29.90,West,263,7.0,14.0,77,0.00,,,0.00,,2013-03-04 23:52:00,
2013-03-04 18:01:00,43.0,36.0,29.91,NNW,342,4.0,14.0,76,0.00,,,0.00,,2013-03-05 00:01:00,
2013-03-04 18:11:00,43.0,36.0,29.91,NNW,342,4.0,14.0,76,0.00,,,0.00,,2013-03-05 00:11:00,
2013-03-04 18:21:00,42.0,35.0,29.91,WNW,302,3.0,14.0,76,0.00,,,0.00,,2013-03-05 00:21:00,
2013-03-04 18:32:00,42.0,35.0,29.93,West,266,3.0,12.0,77,0.00,,,0.00,,2013-03-05 00:32:00,
2013-03-04 18:42:00,42.0,35.0,29.93,West,266,3.0,12.0,77,0.00,,,0.00,,2013-03-05 00:42:00,
2013-03-04 18:52:00,42.0,35.0,29.95,NNW,337,2.0,14.0,77,0.00,,,0.00,,2013-03-05 00:52:00,
2013-03-04 19:01:00,42.0,35.0,29.95,NNW,337,2.0,14.0,77,0.00,,,0.00,,2013-03-05 01:01:00,
2013-03-04 19:12:00,42.0,35.0,29.95,NNW,337,2.0,14.0,77,0.00,,,0.00,,2013-03-05 01:12:00,
2013-03-04 19:21:00,42.0,36.0,29.98,NNE,33,4.0,9.0,78,0.00,,,0.00,,2013-03-05 01:21:00,
2013-03-04 19:32:00,42.0,36.0,29.99,WNW,302,3.0,10.0,78,0.00,,,0.00,,2013-03-05 01:32:00,
2013-03-04 19:42:00,42.0,36.0,29.99,WNW,302,3.0,10.0,78,0.00,,,0.00,,2013-03-05 01:42:00,
2013-03-04 19:52:00,42.0,36.0,29.99,WNW,302,3.0,10.0,78,0.00,,,0.00,,2013-03-05 01:52:00,
2013-03-04 20:01:00,42.0,36.0,30.01,North,356,5.0,10.0,79,0.00,,,0.00,,2013-03-05 02:01:00,
2013-03-04 20:11:00,42.0,36.0,30.01,North,356,5.0,10.0,79,0.00,,,0.00,,2013-03-05 02:11:00,
2013-03-04 20:22:00,41.0,36.0,30.03,NNW,331,4.0,14.0,82,0.00,,,0.00,,2013-03-05 02:22:00,
2013-03-04 20:32:00,40.0,36.0,30.06,NW,309,6.0,16.0,85,0.00,,,0.00,,2013-03-05 02:32:00,
2013-03-04 20:42:00,40.0,36.0,30.06,NW,309,6.0,16.0,85,0.00,,,0.00,,2013-03-05 02:42:00,
2013-03-04 20:52:00,39.0,36.0,30.07,NW,319,6.0,14.0,88,0.00,,,0.00,,2013-03-05 02:52:00,
2013-03-04 21:02:00,39.0,36.0,30.07,NW,319,6.0,14.0,88,0.00,,,0.00,,2013-03-05 03:02:00,
2013-03-04 21:12:00,38.0,35.0,30.09,NW,316,3.0,13.0,90,0.01,,,0.01,,2013-03-05 03:12:00,
2013-03-04 21:22:00,38.0,35.0,30.09,NW,316,3.0,13.0,90,0.01,,,0.01,,2013-03-05 03:22:00,
2013-03-04 21:32:00,38.0,36.0,30.09,NNW,329,1.0,10.0,91,0.01,,,0.01,,2013-03-05 03:32:00,
2013-03-04 21:42:00,38.0,36.0,30.09,NNW,329,1.0,10.0,91,0.01,,,0.01,,2013-03-05 03:42:00,
2013-03-04 21:52:00,38.0,36.0,30.09,NW,305,0.0,6.0,91,0.01,,,0.01,,2013-03-05 03:52:00,
2013-03-04 22:01:00,38.0,36.0,30.09,NW,312,0.0,5.0,91,0.01,,,0.01,,2013-03-05 04:01:00,
2013-03-04 22:11:00,38.0,36.0,30.09,NW,312,0.0,5.0,91,0.01,,,0.01,,2013-03-05 04:11:00,
2013-03-04 22:22:00,38.0,36.0,30.11,NW,309,2.0,4.0,91,0.00,,,0.01,,2013-03-05 04:22:00,
2013-03-04 22:32:00,38.0,36.0,30.11,NW,313,4.0,6.0,91,0.00,,,0.01,,2013-03-05 04:32:00,
2013-03-04 22:42:00,38.0,36.0,30.11,NW,313,4.0,6.0,91,0.00,,,0.01,,2013-03-05 04:42:00,
2013-03-04 22:52:00,38.0,36.0,30.10,WNW,300,0.0,5.0,91,0.00,,,0.01,,2013-03-05 04:52:00,
2013-03-04 23:02:00,38.0,36.0,30.09,NW,317,5.0,5.0,91,0.00,,,0.01,,2013-03-05 05:02:00,
2013-03-04 23:11:00,38.0,36.0,30.09,NW,317,5.0,5.0,91,0.00,,,0.01,,2013-03-05 05:11:00,
2013-03-04 23:22:00,39.0,33.0,30.09,NNW,340,7.0,17.0,78,0.00,,,0.01,,2013-03-05 05:22:00,
2013-03-04 23:31:00,39.0,29.0,30.10,WNW,300,9.0,15.0,68,0.00,,,0.01,,2013-03-05 05:31:00,
2013-03-04 23:42:00,39.0,29.0,30.10,WNW,300,9.0,15.0,68,0.00,,,0.01,,2013-03-05 05:42:00,
2013-03-04 23:52:00,38.0,27.0,30.11,NW,311,7.0,15.0,65,0.00,,,0.01,,2013-03-05 05:52:00,